sensor_id;sensor_type;location;lat;lon;timestamp;temperature;humidity
25918;DHT22;13899;51.174;4.456;2023-02-28T00:00:11;4.80;99.90
25918;DHT22;13899;51.174;4.456;2023-02-28T00:02:38;4.80;99.90
25918;DHT22;13899;51.174;4.456;2023-02-28T00:05:04;4.80;99.90
25918;DHT22;13899;51.174;4.456;2023-02-28T00:07:31;4.90;99.90
25918;DHT22;13899;51.174;4.456;2023-02-28T00:09:57;4.70;99.90
25918;DHT22;13899;51.174;4.456;2023-02-28T00:12:23;4.90;99.90
25918;DHT22;13899;51.174;4.456;2023-02-28T00:14:49;5.10;99.90
25918;DHT22;13899;51.174;4.456;2023-02-28T00:17:15;5.00;99.90
25918;DHT22;13899;51.174;4.456;2023-02-28T00:19:43;5.20;99.90
25918;DHT22;13899;51.174;4.456;2023-02-28T00:22:09;5.30;99.90
25918;DHT22;13899;51.174;4.456;2023-02-28T00:24:36;5.30;99.90
25918;DHT22;13899;51.174;4.456;2023-02-28T00:27:01;5.10;99.90
25918;DHT22;13899;51.174;4.456;2023-02-28T00:29:27;5.00;99.90
25918;DHT22;13899;51.174;4.456;2023-02-28T00:31:52;4.90;99.90
25918;DHT22;13899;51.174;4.456;2023-02-28T00:34:18;5.00;99.90
25918;DHT22;13899;51.174;4.456;2023-02-28T00:36:44;5.30;99.90
25918;DHT22;13899;51.174;4.456;2023-02-28T00:39:11;4.90;99.90
25918;DHT22;13899;51.174;4.456;2023-02-28T00:41:37;5.10;99.90
25918;DHT22;13899;51.174;4.456;2023-02-28T00:44:02;4.80;99.90
25918;DHT22;13899;51.174;4.456;2023-02-28T00:46:28;4.60;99.90
25918;DHT22;13899;51.174;4.456;2023-02-28T00:48:53;4.50;99.90
25918;DHT22;13899;51.174;4.456;2023-02-28T00:51:19;4.60;99.90
25918;DHT22;13899;51.174;4.456;2023-02-28T00:53:45;4.60;99.90
25918;DHT22;13899;51.174;4.456;2023-02-28T00:56:10;4.80;99.90
25918;DHT22;13899;51.174;4.456;2023-02-28T00:58:36;4.70;99.90
25918;DHT22;13899;51.174;4.456;2023-02-28T01:01:02;4.60;99.90
25918;DHT22;13899;51.174;4.456;2023-02-28T01:03:27;4.70;99.90
25918;DHT22;13899;51.174;4.456;2023-02-28T01:05:53;4.60;99.90
25918;DHT22;13899;51.174;4.456;2023-02-28T01:08:19;4.50;99.90
25918;DHT22;13899;51.174;4.456;2023-02-28T01:10:44;4.50;99.90
25918;DHT22;13899;51.174;4.456;2023-02-28T01:13:11;4.50;99.90
25918;DHT22;13899;51.174;4.456;2023-02-28T01:15:37;4.60;99.90
25918;DHT22;13899;51.174;4.456;2023-02-28T01:18:04;4.40;99.90
25918;DHT22;13899;51.174;4.456;2023-02-28T01:20:30;4.20;99.90
25918;DHT22;13899;51.174;4.456;2023-02-28T01:22:56;4.40;99.90
25918;DHT22;13899;51.174;4.456;2023-02-28T01:25:21;4.30;99.90
25918;DHT22;13899;51.174;4.456;2023-02-28T01:27:47;4.60;99.90
25918;DHT22;13899;51.174;4.456;2023-02-28T01:30:12;4.60;99.90
25918;DHT22;13899;51.174;4.456;2023-02-28T01:32:38;4.80;99.90
25918;DHT22;13899;51.174;4.456;2023-02-28T01:35:04;4.90;99.90
25918;DHT22;13899;51.174;4.456;2023-02-28T01:37:30;5.00;99.90
25918;DHT22;13899;51.174;4.456;2023-02-28T01:39:56;5.00;99.90
25918;DHT22;13899;51.174;4.456;2023-02-28T01:42:21;5.20;99.90
25918;DHT22;13899;51.174;4.456;2023-02-28T01:47:23;5.00;99.90
25918;DHT22;13899;51.174;4.456;2023-02-28T01:49:50;5.00;99.90
25918;DHT22;13899;51.174;4.456;2023-02-28T01:52:17;5.10;99.90
25918;DHT22;13899;51.174;4.456;2023-02-28T01:54:48;4.90;99.90
25918;DHT22;13899;51.174;4.456;2023-02-28T01:57:18;5.00;99.90
25918;DHT22;13899;51.174;4.456;2023-02-28T02:00:06;5.10;99.90
25918;DHT22;13899;51.174;4.456;2023-02-28T02:02:33;5.10;99.90
25918;DHT22;13899;51.174;4.456;2023-02-28T02:05:10;4.80;99.90
25918;DHT22;13899;51.174;4.456;2023-02-28T02:07:38;4.60;99.90
25918;DHT22;13899;51.174;4.456;2023-02-28T02:10:17;4.70;99.90
25918;DHT22;13899;51.174;4.456;2023-02-28T02:17:51;4.80;99.90
25918;DHT22;13899;51.174;4.456;2023-02-28T02:20:49;4.90;99.90
25918;DHT22;13899;51.174;4.456;2023-02-28T02:24:03;4.90;99.90
25918;DHT22;13899;51.174;4.456;2023-02-28T02:40:27;4.70;99.90
25918;DHT22;13899;51.174;4.456;2023-02-28T02:43:02;4.80;99.90
25918;DHT22;13899;51.174;4.456;2023-02-28T02:45:48;4.80;99.90
25918;DHT22;13899;51.174;4.456;2023-02-28T02:48:17;4.80;99.90
25918;DHT22;13899;51.174;4.456;2023-02-28T02:51:07;4.60;99.90
25918;DHT22;13899;51.174;4.456;2023-02-28T02:53:46;4.90;99.90
25918;DHT22;13899;51.174;4.456;2023-02-28T02:56:17;4.60;99.90
25918;DHT22;13899;51.174;4.456;2023-02-28T02:58:44;4.60;99.90
25918;DHT22;13899;51.174;4.456;2023-02-28T03:01:19;4.70;99.90
25918;DHT22;13899;51.174;4.456;2023-02-28T03:04:12;4.80;99.90
25918;DHT22;13899;51.174;4.456;2023-02-28T03:06:39;4.70;99.90
25918;DHT22;13899;51.174;4.456;2023-02-28T03:09:05;4.70;99.90
25918;DHT22;13899;51.174;4.456;2023-02-28T03:11:31;4.50;99.90
25918;DHT22;13899;51.174;4.456;2023-02-28T03:17:01;4.50;99.90
25918;DHT22;13899;51.174;4.456;2023-02-28T03:30:39;4.40;99.90
25918;DHT22;13899;51.174;4.456;2023-02-28T03:33:36;4.50;99.90
25918;DHT22;13899;51.174;4.456;2023-02-28T03:36:19;4.40;99.90
25918;DHT22;13899;51.174;4.456;2023-02-28T03:38:54;4.70;99.90
25918;DHT22;13899;51.174;4.456;2023-02-28T03:41:23;4.70;99.90
25918;DHT22;13899;51.174;4.456;2023-02-28T03:43:56;4.70;99.90
25918;DHT22;13899;51.174;4.456;2023-02-28T03:46:26;4.30;99.90
25918;DHT22;13899;51.174;4.456;2023-02-28T03:49:16;4.10;99.90
25918;DHT22;13899;51.174;4.456;2023-02-28T03:51:44;4.10;99.90
25918;DHT22;13899;51.174;4.456;2023-02-28T03:54:18;4.00;99.90
25918;DHT22;13899;51.174;4.456;2023-02-28T03:56:48;4.40;99.90
25918;DHT22;13899;51.174;4.456;2023-02-28T03:59:19;4.30;99.90
25918;DHT22;13899;51.174;4.456;2023-02-28T04:01:48;4.40;99.90
25918;DHT22;13899;51.174;4.456;2023-02-28T04:04:14;4.30;99.90
25918;DHT22;13899;51.174;4.456;2023-02-28T04:06:41;4.50;99.90
25918;DHT22;13899;51.174;4.456;2023-02-28T04:09:09;4.00;99.90
25918;DHT22;13899;51.174;4.456;2023-02-28T04:11:37;4.20;99.90
25918;DHT22;13899;51.174;4.456;2023-02-28T04:14:04;4.90;99.90
25918;DHT22;13899;51.174;4.456;2023-02-28T04:16:31;4.90;99.90
25918;DHT22;13899;51.174;4.456;2023-02-28T04:18:57;5.10;99.90
25918;DHT22;13899;51.174;4.456;2023-02-28T04:21:37;4.80;99.90
25918;DHT22;13899;51.174;4.456;2023-02-28T04:24:08;5.10;99.90
25918;DHT22;13899;51.174;4.456;2023-02-28T04:26:36;5.10;99.90
25918;DHT22;13899;51.174;4.456;2023-02-28T04:29:04;4.90;99.90
25918;DHT22;13899;51.174;4.456;2023-02-28T04:31:30;5.00;99.90
25918;DHT22;13899;51.174;4.456;2023-02-28T04:33:56;4.80;99.90
25918;DHT22;13899;51.174;4.456;2023-02-28T04:36:22;4.80;99.90
25918;DHT22;13899;51.174;4.456;2023-02-28T04:38:49;4.70;99.90
25918;DHT22;13899;51.174;4.456;2023-02-28T04:41:15;4.60;99.90
25918;DHT22;13899;51.174;4.456;2023-02-28T04:43:41;4.50;99.90
25918;DHT22;13899;51.174;4.456;2023-02-28T04:46:07;4.70;99.90
25918;DHT22;13899;51.174;4.456;2023-02-28T04:48:35;4.70;99.90
25918;DHT22;13899;51.174;4.456;2023-02-28T04:51:02;4.80;99.90
25918;DHT22;13899;51.174;4.456;2023-02-28T04:53:29;4.80;99.90
25918;DHT22;13899;51.174;4.456;2023-02-28T04:55:58;4.80;99.90
25918;DHT22;13899;51.174;4.456;2023-02-28T04:58:24;4.90;99.90
25918;DHT22;13899;51.174;4.456;2023-02-28T05:00:51;5.10;99.90
25918;DHT22;13899;51.174;4.456;2023-02-28T05:03:17;5.10;99.90
25918;DHT22;13899;51.174;4.456;2023-02-28T05:05:42;5.20;99.90
25918;DHT22;13899;51.174;4.456;2023-02-28T05:08:08;5.20;99.90
25918;DHT22;13899;51.174;4.456;2023-02-28T05:10:35;5.40;99.90
25918;DHT22;13899;51.174;4.456;2023-02-28T05:13:01;5.40;99.90
25918;DHT22;13899;51.174;4.456;2023-02-28T05:15:26;4.90;99.90
25918;DHT22;13899;51.174;4.456;2023-02-28T05:17:52;5.30;99.90
25918;DHT22;13899;51.174;4.456;2023-02-28T05:20:18;5.50;99.90
25918;DHT22;13899;51.174;4.456;2023-02-28T05:22:44;5.10;99.90
25918;DHT22;13899;51.174;4.456;2023-02-28T05:25:20;4.90;99.90
25918;DHT22;13899;51.174;4.456;2023-02-28T05:27:47;5.00;99.90
25918;DHT22;13899;51.174;4.456;2023-02-28T05:30:13;5.40;99.90
25918;DHT22;13899;51.174;4.456;2023-02-28T05:32:39;5.70;99.90
25918;DHT22;13899;51.174;4.456;2023-02-28T05:35:09;5.00;99.90
25918;DHT22;13899;51.174;4.456;2023-02-28T05:37:35;4.80;99.90
25918;DHT22;13899;51.174;4.456;2023-02-28T05:40:02;5.00;99.90
25918;DHT22;13899;51.174;4.456;2023-02-28T05:42:31;5.30;99.90
25918;DHT22;13899;51.174;4.456;2023-02-28T05:44:57;5.00;99.90
25918;DHT22;13899;51.174;4.456;2023-02-28T05:47:22;5.10;99.90
25918;DHT22;13899;51.174;4.456;2023-02-28T05:49:48;4.80;99.90
25918;DHT22;13899;51.174;4.456;2023-02-28T05:52:13;4.90;99.90
25918;DHT22;13899;51.174;4.456;2023-02-28T05:54:39;5.10;99.90
25918;DHT22;13899;51.174;4.456;2023-02-28T05:57:05;5.30;99.90
25918;DHT22;13899;51.174;4.456;2023-02-28T05:59:30;5.40;99.90
25918;DHT22;13899;51.174;4.456;2023-02-28T06:01:56;5.30;99.90
25918;DHT22;13899;51.174;4.456;2023-02-28T06:04:22;4.90;99.90
25918;DHT22;13899;51.174;4.456;2023-02-28T06:06:48;4.90;99.90
25918;DHT22;13899;51.174;4.456;2023-02-28T06:09:14;4.90;99.90
25918;DHT22;13899;51.174;4.456;2023-02-28T06:11:40;5.20;99.90
25918;DHT22;13899;51.174;4.456;2023-02-28T06:14:07;5.30;99.90
25918;DHT22;13899;51.174;4.456;2023-02-28T06:16:38;5.20;99.90
25918;DHT22;13899;51.174;4.456;2023-02-28T06:19:04;5.20;99.90
25918;DHT22;13899;51.174;4.456;2023-02-28T06:21:31;5.50;99.90
25918;DHT22;13899;51.174;4.456;2023-02-28T06:23:58;5.30;99.90
25918;DHT22;13899;51.174;4.456;2023-02-28T06:26:24;5.30;99.90
25918;DHT22;13899;51.174;4.456;2023-02-28T06:28:50;5.30;99.90
25918;DHT22;13899;51.174;4.456;2023-02-28T06:31:17;4.90;99.90
25918;DHT22;13899;51.174;4.456;2023-02-28T06:33:43;4.30;99.90
25918;DHT22;13899;51.174;4.456;2023-02-28T06:36:10;4.50;99.90
25918;DHT22;13899;51.174;4.456;2023-02-28T06:38:37;4.60;99.90
25918;DHT22;13899;51.174;4.456;2023-02-28T06:41:04;4.90;99.90
25918;DHT22;13899;51.174;4.456;2023-02-28T06:43:33;5.10;99.90
25918;DHT22;13899;51.174;4.456;2023-02-28T06:46:00;5.20;99.90
25918;DHT22;13899;51.174;4.456;2023-02-28T06:48:27;5.20;99.90
25918;DHT22;13899;51.174;4.456;2023-02-28T06:51:01;5.10;99.90
25918;DHT22;13899;51.174;4.456;2023-02-28T06:53:27;5.30;99.90
25918;DHT22;13899;51.174;4.456;2023-02-28T06:55:52;5.10;99.90
25918;DHT22;13899;51.174;4.456;2023-02-28T06:58:18;5.00;99.90
25918;DHT22;13899;51.174;4.456;2023-02-28T07:00:45;5.30;99.90
25918;DHT22;13899;51.174;4.456;2023-02-28T07:03:12;5.50;99.90
25918;DHT22;13899;51.174;4.456;2023-02-28T07:05:40;5.20;99.90
25918;DHT22;13899;51.174;4.456;2023-02-28T07:08:06;5.20;99.90
25918;DHT22;13899;51.174;4.456;2023-02-28T07:10:33;5.30;99.90
25918;DHT22;13899;51.174;4.456;2023-02-28T07:12:59;5.50;99.90
25918;DHT22;13899;51.174;4.456;2023-02-28T07:15:25;5.70;99.90
25918;DHT22;13899;51.174;4.456;2023-02-28T07:17:51;5.70;99.90
25918;DHT22;13899;51.174;4.456;2023-02-28T07:20:17;6.00;99.90
25918;DHT22;13899;51.174;4.456;2023-02-28T07:22:42;5.70;99.90
25918;DHT22;13899;51.174;4.456;2023-02-28T07:25:08;5.60;99.90
25918;DHT22;13899;51.174;4.456;2023-02-28T07:27:34;5.70;99.90
25918;DHT22;13899;51.174;4.456;2023-02-28T07:30:08;6.10;99.90
25918;DHT22;13899;51.174;4.456;2023-02-28T07:32:42;6.10;99.90
25918;DHT22;13899;51.174;4.456;2023-02-28T07:35:22;6.00;99.90
25918;DHT22;13899;51.174;4.456;2023-02-28T07:44:28;5.60;99.90
25918;DHT22;13899;51.174;4.456;2023-02-28T07:47:15;5.40;99.90
25918;DHT22;13899;51.174;4.456;2023-02-28T07:49:41;5.40;99.90
25918;DHT22;13899;51.174;4.456;2023-02-28T07:52:07;5.70;99.90
25918;DHT22;13899;51.174;4.456;2023-02-28T07:54:33;5.70;99.90
25918;DHT22;13899;51.174;4.456;2023-02-28T07:56:59;5.60;99.90
25918;DHT22;13899;51.174;4.456;2023-02-28T07:59:26;5.80;99.90
25918;DHT22;13899;51.174;4.456;2023-02-28T08:01:52;5.80;99.90
25918;DHT22;13899;51.174;4.456;2023-02-28T08:04:18;5.90;99.90
25918;DHT22;13899;51.174;4.456;2023-02-28T08:06:43;6.00;99.90
25918;DHT22;13899;51.174;4.456;2023-02-28T08:09:30;5.60;99.90
25918;DHT22;13899;51.174;4.456;2023-02-28T08:11:56;5.90;99.90
25918;DHT22;13899;51.174;4.456;2023-02-28T08:14:22;5.90;99.90
25918;DHT22;13899;51.174;4.456;2023-02-28T08:16:48;5.90;99.90
25918;DHT22;13899;51.174;4.456;2023-02-28T08:19:13;5.90;99.90
25918;DHT22;13899;51.174;4.456;2023-02-28T08:21:39;5.80;99.90
25918;DHT22;13899;51.174;4.456;2023-02-28T08:24:05;5.80;99.90
25918;DHT22;13899;51.174;4.456;2023-02-28T08:26:31;6.00;99.90
25918;DHT22;13899;51.174;4.456;2023-02-28T08:28:57;6.20;99.90
25918;DHT22;13899;51.174;4.456;2023-02-28T08:31:22;6.10;99.90
25918;DHT22;13899;51.174;4.456;2023-02-28T08:33:48;6.10;99.90
25918;DHT22;13899;51.174;4.456;2023-02-28T08:36:16;6.10;99.90
25918;DHT22;13899;51.174;4.456;2023-02-28T08:38:42;6.20;99.90
25918;DHT22;13899;51.174;4.456;2023-02-28T08:41:10;6.10;99.90
25918;DHT22;13899;51.174;4.456;2023-02-28T08:43:40;6.00;99.90
25918;DHT22;13899;51.174;4.456;2023-02-28T08:46:12;5.90;99.90
25918;DHT22;13899;51.174;4.456;2023-02-28T08:48:39;5.70;99.90
25918;DHT22;13899;51.174;4.456;2023-02-28T08:51:10;5.40;99.90
25918;DHT22;13899;51.174;4.456;2023-02-28T08:53:37;5.60;99.90
25918;DHT22;13899;51.174;4.456;2023-02-28T08:56:14;5.70;99.90
25918;DHT22;13899;51.174;4.456;2023-02-28T08:58:42;5.50;99.90
25918;DHT22;13899;51.174;4.456;2023-02-28T09:01:16;5.60;99.90
25918;DHT22;13899;51.174;4.456;2023-02-28T09:03:43;6.00;99.90
25918;DHT22;13899;51.174;4.456;2023-02-28T09:06:09;6.10;99.90
25918;DHT22;13899;51.174;4.456;2023-02-28T09:08:35;6.50;99.90
25918;DHT22;13899;51.174;4.456;2023-02-28T09:11:01;6.50;99.90
25918;DHT22;13899;51.174;4.456;2023-02-28T09:13:28;6.50;99.90
25918;DHT22;13899;51.174;4.456;2023-02-28T09:15:56;6.50;99.90
25918;DHT22;13899;51.174;4.456;2023-02-28T09:18:22;6.30;99.90
25918;DHT22;13899;51.174;4.456;2023-02-28T09:20:48;6.40;99.90
25918;DHT22;13899;51.174;4.456;2023-02-28T09:23:13;6.60;99.90
25918;DHT22;13899;51.174;4.456;2023-02-28T09:25:52;6.60;99.90
25918;DHT22;13899;51.174;4.456;2023-02-28T09:28:18;6.40;99.90
25918;DHT22;13899;51.174;4.456;2023-02-28T09:30:45;6.40;99.90
25918;DHT22;13899;51.174;4.456;2023-02-28T09:33:12;6.50;99.90
25918;DHT22;13899;51.174;4.456;2023-02-28T09:35:38;6.50;99.90
25918;DHT22;13899;51.174;4.456;2023-02-28T09:38:04;6.50;99.90
25918;DHT22;13899;51.174;4.456;2023-02-28T09:40:36;6.50;99.90
25918;DHT22;13899;51.174;4.456;2023-02-28T09:43:02;6.80;99.90
25918;DHT22;13899;51.174;4.456;2023-02-28T09:45:35;6.70;99.90
25918;DHT22;13899;51.174;4.456;2023-02-28T09:48:10;6.90;99.90
25918;DHT22;13899;51.174;4.456;2023-02-28T09:51:04;7.10;99.90
25918;DHT22;13899;51.174;4.456;2023-02-28T09:53:33;7.60;99.90
25918;DHT22;13899;51.174;4.456;2023-02-28T09:56:06;8.00;99.90
25918;DHT22;13899;51.174;4.456;2023-02-28T09:58:51;7.90;99.90
25918;DHT22;13899;51.174;4.456;2023-02-28T10:06:58;8.20;99.90
25918;DHT22;13899;51.174;4.456;2023-02-28T10:09:32;8.90;99.90
25918;DHT22;13899;51.174;4.456;2023-02-28T10:12:05;9.70;99.90
25918;DHT22;13899;51.174;4.456;2023-02-28T10:14:35;10.00;99.90
25918;DHT22;13899;51.174;4.456;2023-02-28T10:17:11;10.30;99.90
25918;DHT22;13899;51.174;4.456;2023-02-28T10:25:37;10.70;97.00
25918;DHT22;13899;51.174;4.456;2023-02-28T10:28:15;10.60;93.60
25918;DHT22;13899;51.174;4.456;2023-02-28T10:30:47;10.90;94.60
25918;DHT22;13899;51.174;4.456;2023-02-28T10:33:32;10.90;93.60
25918;DHT22;13899;51.174;4.456;2023-02-28T10:35:59;10.10;92.60
25918;DHT22;13899;51.174;4.456;2023-02-28T10:38:27;10.90;93.20
25918;DHT22;13899;51.174;4.456;2023-02-28T10:41:07;10.40;92.20
25918;DHT22;13899;51.174;4.456;2023-02-28T10:43:34;10.80;90.30
25918;DHT22;13899;51.174;4.456;2023-02-28T10:48:45;11.20;88.40
25918;DHT22;13899;51.174;4.456;2023-02-28T10:51:15;12.20;85.20
25918;DHT22;13899;51.174;4.456;2023-02-28T10:53:58;12.50;79.30
25918;DHT22;13899;51.174;4.456;2023-02-28T10:56:26;12.60;74.30
25918;DHT22;13899;51.174;4.456;2023-02-28T11:01:46;13.10;74.80
25918;DHT22;13899;51.174;4.456;2023-02-28T11:09:35;13.60;63.50
25918;DHT22;13899;51.174;4.456;2023-02-28T11:12:16;12.90;63.00
25918;DHT22;13899;51.174;4.456;2023-02-28T11:14:53;12.70;62.20
25918;DHT22;13899;51.174;4.456;2023-02-28T11:17:22;13.10;61.20
25918;DHT22;13899;51.174;4.456;2023-02-28T11:19:52;13.40;60.10
25918;DHT22;13899;51.174;4.456;2023-02-28T11:22:22;13.60;58.90
25918;DHT22;13899;51.174;4.456;2023-02-28T11:24:51;13.50;58.90
25918;DHT22;13899;51.174;4.456;2023-02-28T11:29:54;13.70;59.10
25918;DHT22;13899;51.174;4.456;2023-02-28T11:32:27;13.80;55.10
25918;DHT22;13899;51.174;4.456;2023-02-28T11:35:15;14.20;54.90
25918;DHT22;13899;51.174;4.456;2023-02-28T11:37:42;14.70;55.40
25918;DHT22;13899;51.174;4.456;2023-02-28T11:40:20;14.60;53.10
25918;DHT22;13899;51.174;4.456;2023-02-28T11:46:12;14.80;54.00
25918;DHT22;13899;51.174;4.456;2023-02-28T11:51:26;15.30;54.60
25918;DHT22;13899;51.174;4.456;2023-02-28T11:56:41;15.80;49.90
25918;DHT22;13899;51.174;4.456;2023-02-28T12:08:06;15.20;50.50
25918;DHT22;13899;51.174;4.456;2023-02-28T12:11:01;15.10;51.20
25918;DHT22;13899;51.174;4.456;2023-02-28T12:16:40;16.20;48.50
25918;DHT22;13899;51.174;4.456;2023-02-28T12:22:22;15.30;49.50
25918;DHT22;13899;51.174;4.456;2023-02-28T12:27:40;15.40;48.60
25918;DHT22;13899;51.174;4.456;2023-02-28T12:30:14;15.60;48.40
25918;DHT22;13899;51.174;4.456;2023-02-28T12:32:45;16.30;47.90
25918;DHT22;13899;51.174;4.456;2023-02-28T12:35:19;16.30;46.90
25918;DHT22;13899;51.174;4.456;2023-02-28T12:37:57;16.10;47.70
25918;DHT22;13899;51.174;4.456;2023-02-28T12:40:53;16.40;48.00
25918;DHT22;13899;51.174;4.456;2023-02-28T12:43:21;16.30;46.00
25918;DHT22;13899;51.174;4.456;2023-02-28T12:45:52;14.80;48.00
25918;DHT22;13899;51.174;4.456;2023-02-28T12:51:22;14.90;47.60
25918;DHT22;13899;51.174;4.456;2023-02-28T12:59:53;15.10;46.60
25918;DHT22;13899;51.174;4.456;2023-02-28T13:10:52;15.40;46.90
25918;DHT22;13899;51.174;4.456;2023-02-28T13:13:38;14.80;47.20
25918;DHT22;13899;51.174;4.456;2023-02-28T13:16:09;15.40;47.20
25918;DHT22;13899;51.174;4.456;2023-02-28T13:18:39;15.90;47.30
25918;DHT22;13899;51.174;4.456;2023-02-28T13:21:17;16.50;47.20
25918;DHT22;13899;51.174;4.456;2023-02-28T13:29:24;15.70;47.00
25918;DHT22;13899;51.174;4.456;2023-02-28T13:37:34;15.00;46.30
25918;DHT22;13899;51.174;4.456;2023-02-28T13:40:33;15.10;47.80
25918;DHT22;13899;51.174;4.456;2023-02-28T13:43:02;15.10;47.90
25918;DHT22;13899;51.174;4.456;2023-02-28T13:45:29;15.10;47.20
25918;DHT22;13899;51.174;4.456;2023-02-28T13:48:15;15.00;47.60
25918;DHT22;13899;51.174;4.456;2023-02-28T13:50:43;14.90;47.10
25918;DHT22;13899;51.174;4.456;2023-02-28T13:59:18;15.30;47.90
25918;DHT22;13899;51.174;4.456;2023-02-28T14:05:13;12.80;50.00
25918;DHT22;13899;51.174;4.456;2023-02-28T14:07:46;13.20;50.00
25918;DHT22;13899;51.174;4.456;2023-02-28T14:10:47;13.50;50.70
25918;DHT22;13899;51.174;4.456;2023-02-28T14:13:43;13.00;50.30
25918;DHT22;13899;51.174;4.456;2023-02-28T14:16:26;13.60;51.10
25918;DHT22;13899;51.174;4.456;2023-02-28T14:19:11;13.40;50.20
25918;DHT22;13899;51.174;4.456;2023-02-28T14:25:40;14.60;49.90
25918;DHT22;13899;51.174;4.456;2023-02-28T14:31:22;14.50;48.70
25918;DHT22;13899;51.174;4.456;2023-02-28T14:36:37;14.20;50.10
25918;DHT22;13899;51.174;4.456;2023-02-28T14:39:17;14.10;50.40
25918;DHT22;13899;51.174;4.456;2023-02-28T14:41:45;13.70;51.70
25918;DHT22;13899;51.174;4.456;2023-02-28T14:46:43;14.80;49.60
25918;DHT22;13899;51.174;4.456;2023-02-28T14:49:15;15.10;49.20
25918;DHT22;13899;51.174;4.456;2023-02-28T14:51:42;15.20;49.10
25918;DHT22;13899;51.174;4.456;2023-02-28T14:54:14;15.60;48.40
25918;DHT22;13899;51.174;4.456;2023-02-28T14:56:41;15.80;48.00
25918;DHT22;13899;51.174;4.456;2023-02-28T14:59:25;15.80;48.00
25918;DHT22;13899;51.174;4.456;2023-02-28T15:02:16;15.90;47.30
25918;DHT22;13899;51.174;4.456;2023-02-28T15:04:42;16.30;48.60
25918;DHT22;13899;51.174;4.456;2023-02-28T15:07:14;16.40;47.10
25918;DHT22;13899;51.174;4.456;2023-02-28T15:09:41;16.10;47.20
25918;DHT22;13899;51.174;4.456;2023-02-28T15:12:07;15.60;47.40
25918;DHT22;13899;51.174;4.456;2023-02-28T15:14:43;15.20;48.80
25918;DHT22;13899;51.174;4.456;2023-02-28T15:17:19;15.10;48.50
25918;DHT22;13899;51.174;4.456;2023-02-28T15:19:48;14.60;49.10
25918;DHT22;13899;51.174;4.456;2023-02-28T15:22:21;13.80;49.30
25918;DHT22;13899;51.174;4.456;2023-02-28T15:24:51;14.50;50.40
25918;DHT22;13899;51.174;4.456;2023-02-28T15:27:22;15.20;49.10
25918;DHT22;13899;51.174;4.456;2023-02-28T15:29:53;15.90;47.80
25918;DHT22;13899;51.174;4.456;2023-02-28T15:32:27;16.20;47.80
25918;DHT22;13899;51.174;4.456;2023-02-28T15:34:57;16.40;47.30
25918;DHT22;13899;51.174;4.456;2023-02-28T15:40:17;16.30;47.70
25918;DHT22;13899;51.174;4.456;2023-02-28T15:42:43;16.10;48.00
25918;DHT22;13899;51.174;4.456;2023-02-28T15:45:50;16.40;47.30
25918;DHT22;13899;51.174;4.456;2023-02-28T15:48:34;15.30;47.70
25918;DHT22;13899;51.174;4.456;2023-02-28T15:54:01;14.70;48.60
25918;DHT22;13899;51.174;4.456;2023-02-28T15:56:28;14.70;49.10
25918;DHT22;13899;51.174;4.456;2023-02-28T15:58:59;14.00;49.60
25918;DHT22;13899;51.174;4.456;2023-02-28T16:01:33;13.40;50.90
25918;DHT22;13899;51.174;4.456;2023-02-28T16:04:04;13.90;51.20
25918;DHT22;13899;51.174;4.456;2023-02-28T16:09:05;14.60;49.90
25918;DHT22;13899;51.174;4.456;2023-02-28T16:11:34;14.80;49.80
25918;DHT22;13899;51.174;4.456;2023-02-28T16:14:01;14.90;49.70
25918;DHT22;13899;51.174;4.456;2023-02-28T16:16:26;15.10;49.40
25918;DHT22;13899;51.174;4.456;2023-02-28T16:18:53;14.40;49.40
25918;DHT22;13899;51.174;4.456;2023-02-28T16:21:18;14.70;49.70
25918;DHT22;13899;51.174;4.456;2023-02-28T16:23:44;14.80;49.40
25918;DHT22;13899;51.174;4.456;2023-02-28T16:26:23;14.20;49.20
25918;DHT22;13899;51.174;4.456;2023-02-28T16:28:50;12.60;52.40
25918;DHT22;13899;51.174;4.456;2023-02-28T16:31:16;11.40;53.70
25918;DHT22;13899;51.174;4.456;2023-02-28T16:33:44;11.40;54.70
25918;DHT22;13899;51.174;4.456;2023-02-28T16:36:22;11.30;55.10
25918;DHT22;13899;51.174;4.456;2023-02-28T16:38:50;10.90;55.10
25918;DHT22;13899;51.174;4.456;2023-02-28T16:41:22;10.60;56.00
25918;DHT22;13899;51.174;4.456;2023-02-28T16:43:52;10.60;56.00
25918;DHT22;13899;51.174;4.456;2023-02-28T16:46:19;10.30;56.80
25918;DHT22;13899;51.174;4.456;2023-02-28T16:48:46;9.80;57.90
25918;DHT22;13899;51.174;4.456;2023-02-28T16:51:16;9.80;58.00
25918;DHT22;13899;51.174;4.456;2023-02-28T16:53:44;10.00;58.00
25918;DHT22;13899;51.174;4.456;2023-02-28T16:56:19;10.20;58.50
25918;DHT22;13899;51.174;4.456;2023-02-28T16:58:45;9.80;58.60
25918;DHT22;13899;51.174;4.456;2023-02-28T17:01:12;9.60;59.30
25918;DHT22;13899;51.174;4.456;2023-02-28T17:03:37;9.20;59.90
25918;DHT22;13899;51.174;4.456;2023-02-28T17:06:04;9.50;60.20
25918;DHT22;13899;51.174;4.456;2023-02-28T17:08:30;9.30;61.30
25918;DHT22;13899;51.174;4.456;2023-02-28T17:10:58;9.50;62.00
25918;DHT22;13899;51.174;4.456;2023-02-28T17:13:23;9.50;61.10
25918;DHT22;13899;51.174;4.456;2023-02-28T17:15:49;9.60;62.60
25918;DHT22;13899;51.174;4.456;2023-02-28T17:18:18;9.50;61.80
25918;DHT22;13899;51.174;4.456;2023-02-28T17:20:45;9.20;62.80
25918;DHT22;13899;51.174;4.456;2023-02-28T17:23:11;8.90;64.60
25918;DHT22;13899;51.174;4.456;2023-02-28T17:25:36;8.90;65.10
25918;DHT22;13899;51.174;4.456;2023-02-28T17:28:02;8.90;66.00
25918;DHT22;13899;51.174;4.456;2023-02-28T17:30:28;8.50;67.50
25918;DHT22;13899;51.174;4.456;2023-02-28T17:32:55;8.60;68.50
25918;DHT22;13899;51.174;4.456;2023-02-28T17:35:21;8.40;69.70
25918;DHT22;13899;51.174;4.456;2023-02-28T17:37:47;8.50;70.30
25918;DHT22;13899;51.174;4.456;2023-02-28T17:40:20;8.50;71.30
25918;DHT22;13899;51.174;4.456;2023-02-28T17:42:48;8.40;72.30
25918;DHT22;13899;51.174;4.456;2023-02-28T17:45:17;8.20;72.90
25918;DHT22;13899;51.174;4.456;2023-02-28T17:47:45;8.20;73.40
25918;DHT22;13899;51.174;4.456;2023-02-28T17:50:20;8.20;75.40
25918;DHT22;13899;51.174;4.456;2023-02-28T17:52:48;7.90;78.10
25918;DHT22;13899;51.174;4.456;2023-02-28T17:55:15;7.70;80.00
25918;DHT22;13899;51.174;4.456;2023-02-28T17:57:42;7.60;80.10
25918;DHT22;13899;51.174;4.456;2023-02-28T18:00:08;7.40;83.00
25918;DHT22;13899;51.174;4.456;2023-02-28T18:02:37;7.20;84.30
25918;DHT22;13899;51.174;4.456;2023-02-28T18:05:05;6.90;90.40
25918;DHT22;13899;51.174;4.456;2023-02-28T18:07:31;7.10;90.70
25918;DHT22;13899;51.174;4.456;2023-02-28T18:09:57;7.30;92.20
25918;DHT22;13899;51.174;4.456;2023-02-28T18:12:22;7.50;92.40
25918;DHT22;13899;51.174;4.456;2023-02-28T18:14:48;7.80;90.80
25918;DHT22;13899;51.174;4.456;2023-02-28T18:17:14;7.80;91.60
25918;DHT22;13899;51.174;4.456;2023-02-28T18:19:39;7.90;90.80
25918;DHT22;13899;51.174;4.456;2023-02-28T18:22:05;7.90;91.10
25918;DHT22;13899;51.174;4.456;2023-02-28T18:24:33;7.80;91.10
25918;DHT22;13899;51.174;4.456;2023-02-28T18:27:00;8.00;90.90
25918;DHT22;13899;51.174;4.456;2023-02-28T18:29:27;7.90;91.40
25918;DHT22;13899;51.174;4.456;2023-02-28T18:31:54;7.90;91.30